Terminal Aerodrome Forecast
Issued by NWS

Home | Current Version | Previous Version | Text Only | Print | Product List | Glossary On
Versions: 1 2 3 4 5 6 7 8 9 10 11 12 13 14 15 16
457
FTUS41 KLWX 041738
TAFMTN
TAF
KMTN 041738Z 0418/0518 31004KT P6SM SCT050 BKN250
     FM050300 14004KT P6SM -RAPL BKN060 OVC120
     FM050600 15006KT P6SM -RA SCT008 OVC050
     FM050900 17007KT P6SM -RA SCT008 OVC010
     FM051200 20005KT P6SM OVC008
     FM051500 28007KT P6SM SCT008 BKN050=

USA.gov is the U.S. government's official web portal to all federal, state and local government web resources and services.